Time;durP1;ratioP1;P1;durP2;ratioP2;P2;SDS_P1;SDS_P2;PMS_P1;PMS_P2;Temp;Humidity;BMP_temperature;BMP_pressure;BME280_temperature;BME280_humidity;BME280_pressure;Samples;Min_cycle;Max_cycle;Signal;HPM_P1;HPM_P2
2021/01/08 00:02:23;;;;;;;33.78;14.32;;;1.40;99.90;;;;;;4984531;28;20445;-70
2021/01/08 00:04:49;;;;;;;34.42;15.07;;;1.30;99.90;;;;;;4983790;28;20034;-70
2021/01/08 00:07:15;;;;;;;32.72;14.60;;;1.30;99.90;;;;;;4981776;28;20052;-70
2021/01/08 00:09:40;;;;;;;35.28;15.60;;;1.30;99.90;;;;;;4982719;28;20034;-71
2021/01/08 00:12:07;;;;;;;32.03;15.70;;;1.30;99.90;;;;;;4983782;28;20046;-70
2021/01/08 00:14:33;;;;;;;34.95;16.83;;;1.20;99.90;;;;;;4983002;28;20030;-70
2021/01/08 00:16:59;;;;;;;34.28;16.05;;;1.30;99.90;;;;;;4983357;28;20026;-70
2021/01/08 00:19:24;;;;;;;34.78;16.40;;;1.30;99.90;;;;;;4981800;28;20084;-71
2021/01/08 00:21:50;;;;;;;32.05;15.35;;;1.30;99.90;;;;;;4994040;28;20787;-71
2021/01/08 00:24:16;;;;;;;32.10;15.70;;;1.30;99.90;;;;;;4999082;28;20042;-70
2021/01/08 00:26:47;;;;;;;36.72;17.38;;;1.30;99.90;;;;;;4982404;28;20048;-71
2021/01/08 00:29:15;;;;;;;33.53;15.40;;;1.30;99.90;;;;;;4983191;28;20048;-71
2021/01/08 00:31:46;;;;;;;35.10;15.98;;;1.30;99.90;;;;;;4980461;28;20041;-71
2021/01/08 00:34:14;;;;;;;36.45;15.98;;;1.30;99.90;;;;;;4982341;28;20042;-71
2021/01/08 00:36:53;;;;;;;35.30;15.90;;;1.30;99.90;;;;;;4980528;28;20677;-71
2021/01/08 00:39:21;;;;;;;32.67;15.02;;;1.20;99.90;;;;;;4984590;28;20027;-70
2021/01/08 00:41:47;;;;;;;33.53;15.57;;;1.20;99.90;;;;;;4987339;28;20117;-70
2021/01/08 00:44:13;;;;;;;35.70;15.93;;;1.20;99.90;;;;;;5002673;28;20058;-70
2021/01/08 00:46:44;;;;;;;35.42;16.35;;;1.20;99.90;;;;;;4982307;28;20382;-70
2021/01/08 00:49:11;;;;;;;35.85;16.60;;;1.30;99.90;;;;;;4984768;28;20166;-70
2021/01/08 00:51:37;;;;;;;33.17;15.27;;;1.30;99.90;;;;;;4977680;28;20406;-71
2021/01/08 00:54:05;;;;;;;35.78;16.35;;;1.30;99.90;;;;;;4982186;28;20839;-71
2021/01/08 00:56:31;;;;;;;34.63;16.30;;;1.30;99.90;;;;;;4982891;28;20030;-70
2021/01/08 00:59:04;;;;;;;33.67;15.77;;;1.20;99.90;;;;;;4999265;28;20062;-70
2021/01/08 01:01:30;;;;;;;34.45;16.17;;;1.30;99.90;;;;;;4999616;28;20098;-70
2021/01/08 01:03:55;;;;;;;36.70;15.43;;;1.30;99.90;;;;;;4996397;28;20130;-70
2021/01/08 01:06:28;;;;;;;31.88;15.70;;;1.40;99.90;;;;;;4983616;28;20774;-71
2021/01/08 01:08:54;;;;;;;37.88;16.23;;;1.40;99.90;;;;;;4998108;28;20042;-71
2021/01/08 01:11:21;;;;;;;39.92;16.95;;;1.40;99.90;;;;;;4984442;28;20053;-70
2021/01/08 01:13:48;;;;;;;33.20;16.13;;;1.40;99.90;;;;;;4984474;28;20042;-70
2021/01/08 01:16:15;;;;;;;39.47;16.95;;;1.40;99.90;;;;;;4971676;28;20038;-71
2021/01/08 01:18:46;;;;;;;38.78;17.38;;;1.40;99.90;;;;;;4982955;28;20384;-73
2021/01/08 01:21:12;;;;;;;34.35;16.42;;;1.50;99.90;;;;;;4982358;28;20049;-71
2021/01/08 01:23:38;;;;;;;36.80;16.65;;;1.50;99.90;;;;;;4983811;28;20042;-71
2021/01/08 01:26:04;;;;;;;33.65;15.98;;;1.40;99.90;;;;;;4983865;28;20046;-70
2021/01/08 01:28:30;;;;;;;34.95;16.38;;;1.40;99.90;;;;;;4971584;28;20069;-70
2021/01/08 01:30:56;;;;;;;35.13;17.15;;;1.40;99.90;;;;;;4979969;28;20479;-70
2021/01/08 01:33:22;;;;;;;35.83;17.33;;;1.40;99.90;;;;;;4999127;28;20094;-71
2021/01/08 01:35:47;;;;;;;37.85;17.25;;;1.50;99.90;;;;;;4983621;28;20030;-71
2021/01/08 01:38:13;;;;;;;35.92;16.40;;;1.40;99.90;;;;;;4984349;28;20026;-71
2021/01/08 01:40:39;;;;;;;34.00;16.55;;;1.40;99.90;;;;;;4984176;28;20043;-71
2021/01/08 01:43:05;;;;;;;33.47;16.20;;;1.30;99.90;;;;;;4973492;28;20109;-71
2021/01/08 01:45:31;;;;;;;37.60;16.85;;;1.40;99.90;;;;;;4982705;28;20030;-71
2021/01/08 01:47:57;;;;;;;32.53;15.93;;;1.40;99.90;;;;;;4982737;28;20635;-71
2021/01/08 01:50:24;;;;;;;34.00;16.33;;;1.40;99.90;;;;;;4983180;28;20031;-71
2021/01/08 01:52:49;;;;;;;33.75;16.30;;;1.40;99.90;;;;;;4977550;28;20525;-71
2021/01/08 01:55:15;;;;;;;35.42;16.08;;;1.40;99.90;;;;;;4996879;28;20117;-71
2021/01/08 01:57:44;;;;;;;33.38;16.52;;;1.30;99.90;;;;;;4983182;28;20030;-71
2021/01/08 02:00:10;;;;;;;31.50;15.63;;;1.30;99.90;;;;;;4998023;28;20538;-71
2021/01/08 02:02:42;;;;;;;33.95;16.60;;;1.20;99.90;;;;;;4981224;28;20045;-71
2021/01/08 02:05:09;;;;;;;34.80;16.65;;;1.20;99.90;;;;;;4983206;28;20105;-71
2021/01/08 02:07:42;;;;;;;36.20;16.55;;;1.20;99.90;;;;;;4981249;28;20045;-71
2021/01/08 02:10:10;;;;;;;34.50;16.17;;;1.20;99.90;;;;;;4981273;28;20042;-71
2021/01/08 02:12:37;;;;;;;34.72;15.40;;;1.20;99.90;;;;;;4983446;28;20042;-71
2021/01/08 02:15:05;;;;;;;35.58;16.95;;;1.10;99.90;;;;;;4996157;28;20041;-71
2021/01/08 02:17:31;;;;;;;34.92;16.45;;;1.10;99.90;;;;;;4981631;28;20459;-71
2021/01/08 02:20:04;;;;;;;38.40;17.00;;;1.10;99.90;;;;;;4982026;28;20647;-71
2021/01/08 02:22:49;;;;;;;38.08;17.58;;;1.10;99.90;;;;;;4982009;28;20440;-71
2021/01/08 02:25:19;;;;;;;35.50;16.70;;;1.10;99.90;;;;;;4981183;28;20038;-71
2021/01/08 02:28:25;;;;;;;36.10;16.90;;;1.20;99.90;;;;;;4982500;28;20038;-71
2021/01/08 02:30:52;;;;;;;37.30;16.63;;;1.20;99.90;;;;;;4997446;28;20038;-70
2021/01/08 02:33:19;;;;;;;38.65;17.88;;;1.20;99.90;;;;;;4982677;28;20158;-71
2021/01/08 02:35:48;;;;;;;39.22;16.90;;;1.10;99.90;;;;;;4980355;28;20129;-71
2021/01/08 02:38:15;;;;;;;40.58;17.77;;;1.20;99.90;;;;;;4981516;28;20109;-71
2021/01/08 02:40:47;;;;;;;36.65;17.58;;;1.20;99.90;;;;;;4983291;28;20046;-71
2021/01/08 02:43:15;;;;;;;42.03;18.45;;;1.20;99.90;;;;;;4999156;28;20088;-71
2021/01/08 02:45:41;;;;;;;36.17;17.02;;;1.20;99.90;;;;;;4980683;28;20041;-71
2021/01/08 02:48:07;;;;;;;40.95;18.05;;;1.20;99.90;;;;;;4997390;28;20034;-71
2021/01/08 02:50:33;;;;;;;40.30;17.60;;;1.20;99.90;;;;;;4980971;28;20113;-70
2021/01/08 02:53:06;;;;;;;41.78;18.30;;;1.20;99.90;;;;;;4980954;28;20137;-70
2021/01/08 02:55:33;;;;;;;36.33;17.15;;;1.20;99.90;;;;;;4981065;28;20043;-70
2021/01/08 02:58:00;;;;;;;38.97;17.73;;;1.20;99.90;;;;;;4980727;28;20026;-70
2021/01/08 03:00:30;;;;;;;41.80;18.10;;;1.20;99.90;;;;;;4980486;28;20061;-71
2021/01/08 03:02:57;;;;;;;42.45;19.23;;;1.20;99.90;;;;;;4982744;28;20110;-70
2021/01/08 03:05:27;;;;;;;38.88;17.35;;;1.20;99.90;;;;;;4975541;28;20149;-70
2021/01/08 03:07:53;;;;;;;42.05;18.20;;;1.20;99.90;;;;;;4981315;28;20038;-70
2021/01/08 03:10:18;;;;;;;44.50;19.05;;;1.20;99.90;;;;;;4981235;28;20034;-71
2021/01/08 03:12:53;;;;;;;37.30;17.40;;;1.20;99.90;;;;;;4981630;28;20040;-70
2021/01/08 03:15:19;;;;;;;39.80;17.88;;;1.20;99.90;;;;;;4976830;28;20077;-70
2021/01/08 03:17:45;;;;;;;40.97;18.35;;;1.20;99.90;;;;;;4977210;28;20153;-70
2021/01/08 03:20:11;;;;;;;41.13;18.40;;;1.20;99.90;;;;;;4980751;28;20509;-71
2021/01/08 03:22:36;;;;;;;39.67;18.13;;;1.10;99.90;;;;;;4995573;28;20058;-71
2021/01/08 03:25:02;;;;;;;41.67;17.35;;;1.10;99.90;;;;;;4982629;28;20148;-71
2021/01/08 03:27:28;;;;;;;45.05;18.98;;;1.10;99.90;;;;;;4983466;28;20486;-71
2021/01/08 03:29:54;;;;;;;40.35;18.23;;;1.00;99.90;;;;;;4982225;28;20042;-70
2021/01/08 03:32:19;;;;;;;44.53;18.65;;;1.10;99.90;;;;;;4984576;28;20113;-70
2021/01/08 03:34:45;;;;;;;41.40;18.40;;;1.10;99.90;;;;;;4984862;28;20034;-70
2021/01/08 03:37:11;;;;;;;41.30;18.67;;;1.10;99.90;;;;;;4985218;28;20102;-70
2021/01/08 03:39:36;;;;;;;42.65;18.20;;;1.00;99.90;;;;;;4982143;28;20358;-70
2021/01/08 03:42:02;;;;;;;40.13;18.33;;;1.10;99.90;;;;;;4978548;28;20113;-70
2021/01/08 03:44:28;;;;;;;42.78;19.20;;;1.00;99.90;;;;;;4981997;28;20063;-70
2021/01/08 03:46:54;;;;;;;41.33;18.42;;;1.00;99.90;;;;;;4977965;28;20045;-70
2021/01/08 03:49:19;;;;;;;42.72;18.50;;;0.90;99.90;;;;;;4974220;28;20073;-70
2021/01/08 03:51:45;;;;;;;41.05;18.13;;;1.00;99.90;;;;;;4977671;28;20038;-70
2021/01/08 03:54:11;;;;;;;37.80;18.35;;;1.00;99.90;;;;;;4983529;28;20034;-70
2021/01/08 03:56:36;;;;;;;44.03;19.52;;;0.90;99.90;;;;;;4981433;28;20041;-70
2021/01/08 03:59:02;;;;;;;43.80;18.98;;;0.90;99.90;;;;;;4972718;28;20036;-70
2021/01/08 04:01:27;;;;;;;41.45;17.83;;;0.90;99.90;;;;;;4983241;28;20031;-70
2021/01/08 04:03:53;;;;;;;39.33;17.95;;;0.90;99.90;;;;;;4982544;28;20038;-70
2021/01/08 04:06:19;;;;;;;42.47;19.15;;;0.90;99.90;;;;;;4982093;28;20034;-70
2021/01/08 04:08:44;;;;;;;45.22;19.08;;;0.90;99.90;;;;;;4994791;28;20066;-70
2021/01/08 04:11:10;;;;;;;40.75;18.10;;;0.90;99.90;;;;;;4976424;28;20112;-70
2021/01/08 04:13:36;;;;;;;46.35;19.70;;;0.90;99.90;;;;;;4977599;28;20034;-70
2021/01/08 04:16:01;;;;;;;43.95;18.88;;;0.90;99.90;;;;;;4982362;28;20037;-70
2021/01/08 04:18:27;;;;;;;42.70;19.27;;;0.90;99.90;;;;;;4981159;28;20490;-70
2021/01/08 04:20:53;;;;;;;45.20;18.13;;;0.90;99.90;;;;;;4982021;28;20042;-70
2021/01/08 04:23:18;;;;;;;49.33;20.02;;;0.80;99.90;;;;;;4979311;28;20036;-71
2021/01/08 04:25:44;;;;;;;44.47;19.45;;;0.90;99.90;;;;;;4996122;28;20068;-70
2021/01/08 04:28:10;;;;;;;42.63;18.63;;;0.90;99.90;;;;;;4980080;28;20113;-70
2021/01/08 04:30:35;;;;;;;42.17;18.70;;;0.90;99.90;;;;;;4981354;28;20197;-70
2021/01/08 04:33:01;;;;;;;40.42;18.17;;;0.80;99.90;;;;;;4980650;28;20097;-70
2021/01/08 04:35:27;;;;;;;45.00;19.55;;;0.80;99.90;;;;;;4980978;28;20050;-70
2021/01/08 04:37:53;;;;;;;49.08;19.98;;;0.80;99.90;;;;;;4997134;28;20435;-70
2021/01/08 04:40:19;;;;;;;43.22;19.83;;;0.80;99.90;;;;;;4980353;28;20026;-71
2021/01/08 04:42:45;;;;;;;44.55;19.88;;;0.80;99.90;;;;;;4980078;28;20776;-70
2021/01/08 04:45:11;;;;;;;42.80;18.88;;;0.80;99.90;;;;;;4977836;28;20041;-70
2021/01/08 04:47:37;;;;;;;45.33;18.73;;;0.80;99.90;;;;;;4979956;28;20934;-70
2021/01/08 04:50:04;;;;;;;48.75;19.73;;;0.80;99.90;;;;;;4981196;28;20491;-71
2021/01/08 04:52:34;;;;;;;45.05;18.75;;;0.80;99.90;;;;;;4979898;28;20066;-70
2021/01/08 04:55:00;;;;;;;45.35;18.67;;;0.80;99.90;;;;;;4980367;28;20026;-71
2021/01/08 04:57:29;;;;;;;41.45;18.27;;;0.80;99.90;;;;;;4982032;28;20023;-71
2021/01/08 04:59:54;;;;;;;45.35;18.88;;;0.80;99.90;;;;;;4982226;28;20890;-71
2021/01/08 05:02:20;;;;;;;44.50;20.17;;;0.80;99.90;;;;;;4981536;28;20038;-70
2021/01/08 05:04:46;;;;;;;42.90;18.77;;;0.80;99.90;;;;;;4979939;28;20113;-70
2021/01/08 05:07:12;;;;;;;43.47;19.33;;;0.90;99.90;;;;;;4979493;28;20041;-70
2021/01/08 05:09:38;;;;;;;43.65;18.42;;;0.80;99.90;;;;;;4979379;28;20030;-70
2021/01/08 05:12:04;;;;;;;43.50;19.23;;;0.80;99.90;;;;;;4980123;28;20069;-70
2021/01/08 05:14:31;;;;;;;44.38;19.00;;;0.90;99.90;;;;;;4979036;28;20787;-71
2021/01/08 05:16:57;;;;;;;47.80;19.52;;;0.90;99.90;;;;;;4978851;28;20673;-71
2021/01/08 05:19:24;;;;;;;48.28;20.65;;;1.00;99.90;;;;;;4979164;28;20035;-70
2021/01/08 05:21:54;;;;;;;40.58;18.42;;;1.00;99.90;;;;;;4980757;28;20529;-70
2021/01/08 05:24:23;;;;;;;41.40;19.05;;;0.90;99.90;;;;;;4982179;28;20058;-70
2021/01/08 05:26:53;;;;;;;42.92;18.92;;;0.90;99.90;;;;;;4983317;28;20514;-70
2021/01/08 05:29:18;;;;;;;42.03;17.95;;;0.90;99.90;;;;;;4982552;28;20042;-70
2021/01/08 05:31:47;;;;;;;40.25;17.98;;;0.80;99.90;;;;;;4981934;28;20104;-70
2021/01/08 05:34:13;;;;;;;45.65;20.15;;;0.80;99.90;;;;;;4982882;28;20030;-70
2021/01/08 05:36:39;;;;;;;41.33;18.85;;;0.90;99.90;;;;;;4984707;28;20542;-70
2021/01/08 05:39:05;;;;;;;42.45;18.45;;;0.80;99.90;;;;;;4983337;28;20038;-70
2021/01/08 05:41:32;;;;;;;44.35;19.77;;;0.80;99.90;;;;;;4983975;28;20045;-70
2021/01/08 05:44:00;;;;;;;44.00;20.08;;;0.90;99.90;;;;;;4975633;28;20411;-71
2021/01/08 05:46:31;;;;;;;45.90;19.15;;;0.90;99.90;;;;;;4976074;28;20061;-71
2021/01/08 05:49:05;;;;;;;47.78;20.15;;;0.90;99.90;;;;;;4980478;28;20045;-70
2021/01/08 05:51:35;;;;;;;43.75;18.83;;;0.90;99.90;;;;;;4982315;28;20155;-71
2021/01/08 05:54:02;;;;;;;43.33;18.73;;;1.00;99.90;;;;;;4981126;28;20787;-71
2021/01/08 05:56:36;;;;;;;40.40;18.83;;;1.00;99.90;;;;;;4977148;28;20404;-71
2021/01/08 05:59:06;;;;;;;42.35;18.38;;;1.10;99.90;;;;;;4980241;28;20076;-71
2021/01/08 06:01:36;;;;;;;50.15;21.45;;;1.10;99.90;;;;;;4979928;28;20044;-72
2021/01/08 06:04:02;;;;;;;52.45;23.00;;;1.10;99.90;;;;;;4979243;28;20030;-71
2021/01/08 06:06:40;;;;;;;45.50;20.40;;;1.00;99.90;;;;;;4981416;28;20114;-71
2021/01/08 06:09:06;;;;;;;47.60;22.10;;;1.00;99.90;;;;;;4979203;28;20876;-71
2021/01/08 06:11:35;;;;;;;46.38;21.15;;;1.00;99.90;;;;;;4978147;28;20042;-71
2021/01/08 06:14:02;;;;;;;41.92;17.85;;;1.10;99.90;;;;;;4980343;28;20092;-71
2021/01/08 06:16:37;;;;;;;40.30;18.27;;;1.00;99.90;;;;;;4990625;28;20046;-71
2021/01/08 06:19:04;;;;;;;41.70;18.35;;;1.00;99.90;;;;;;4963690;28;20035;-71
2021/01/08 06:21:37;;;;;;;46.15;22.52;;;1.00;99.90;;;;;;4962836;28;20039;-69
2021/01/08 06:24:03;;;;;;;42.35;19.42;;;1.00;99.90;;;;;;4970909;28;20045;-69
2021/01/08 06:26:31;;;;;;;40.40;19.35;;;1.00;99.90;;;;;;4971689;28;20723;-69
2021/01/08 06:29:02;;;;;;;51.60;22.35;;;1.00;99.90;;;;;;4961854;28;20026;-68
2021/01/08 06:31:48;;;;;;;41.75;18.70;;;1.00;99.90;;;;;;4967255;28;20404;-69
2021/01/08 06:34:28;;;;;;;48.40;22.25;;;1.00;99.90;;;;;;4967134;28;20556;-68
2021/01/08 06:37:08;;;;;;;46.22;19.25;;;1.00;99.90;;;;;;4962595;28;20553;-69
2021/01/08 06:39:36;;;;;;;44.95;18.88;;;1.00;99.90;;;;;;4970382;28;20040;-69
2021/01/08 06:42:03;;;;;;;38.10;18.23;;;1.00;99.90;;;;;;4964057;28;20037;-69
2021/01/08 06:44:33;;;;;;;44.58;22.50;;;1.10;99.90;;;;;;4963867;28;20509;-68
2021/01/08 06:47:04;;;;;;;46.97;22.85;;;1.10;99.90;;;;;;4975991;28;20180;-69
2021/01/08 06:49:32;;;;;;;46.47;21.73;;;1.10;99.90;;;;;;4960922;28;20514;-72
2021/01/08 06:52:01;;;;;;;43.17;19.85;;;1.00;99.90;;;;;;4968044;28;20034;-75
2021/01/08 06:54:28;;;;;;;43.55;19.75;;;1.00;99.90;;;;;;4962074;28;20026;-74
2021/01/08 06:57:01;;;;;;;45.83;20.42;;;1.10;99.90;;;;;;4966090;28;20688;-72
2021/01/08 06:59:30;;;;;;;47.88;22.13;;;1.10;99.90;;;;;;4961615;28;20074;-72
2021/01/08 07:01:59;;;;;;;51.10;22.50;;;1.10;99.90;;;;;;4961681;28;20035;-72
2021/01/08 07:04:26;;;;;;;42.33;19.13;;;1.10;99.90;;;;;;4978865;28;20042;-72
2021/01/08 07:06:58;;;;;;;44.38;19.52;;;1.10;99.90;;;;;;4966111;28;20084;-71
2021/01/08 07:09:34;;;;;;;42.95;19.70;;;1.20;99.90;;;;;;4962036;28;20093;-71
2021/01/08 07:12:02;;;;;;;42.38;19.30;;;1.10;99.90;;;;;;4970331;28;20062;-70
2021/01/08 07:14:28;;;;;;;42.30;20.02;;;1.10;99.90;;;;;;4960606;28;20435;-71
2021/01/08 07:16:56;;;;;;;51.20;21.70;;;1.20;99.90;;;;;;4967762;28;20205;-71
2021/01/08 07:19:28;;;;;;;47.13;23.83;;;1.20;99.90;;;;;;4958924;28;20030;-72
2021/01/08 07:21:55;;;;;;;43.83;20.38;;;1.10;99.90;;;;;;4964524;28;20774;-72
2021/01/08 07:24:29;;;;;;;44.75;20.13;;;1.20;99.90;;;;;;4961281;28;20045;-71
2021/01/08 07:27:12;;;;;;;36.50;17.30;;;1.30;99.90;;;;;;4974284;28;20127;-71
2021/01/08 07:29:38;;;;;;;46.22;20.15;;;1.20;99.90;;;;;;4962999;28;20153;-71
2021/01/08 07:32:05;;;;;;;45.80;19.80;;;1.20;99.90;;;;;;4959254;28;20089;-73
2021/01/08 07:34:35;;;;;;;46.70;22.40;;;1.30;99.90;;;;;;4963296;28;20085;-72
2021/01/08 07:37:02;;;;;;;37.90;18.15;;;1.30;99.90;;;;;;4960184;28;20031;-73
2021/01/08 07:39:41;;;;;;;39.03;18.20;;;1.20;99.90;;;;;;4970365;28;20038;-72
2021/01/08 07:42:33;;;;;;;40.22;18.80;;;1.20;99.90;;;;;;4967479;28;20034;-72
2021/01/08 07:45:00;;;;;;;46.28;19.67;;;1.30;99.90;;;;;;4957455;28;20034;-72
2021/01/08 07:47:27;;;;;;;42.85;18.23;;;1.30;99.90;;;;;;4973039;28;20519;-72
2021/01/08 07:50:14;;;;;;;52.35;24.55;;;1.20;99.90;;;;;;4960456;28;20039;-72
2021/01/08 07:52:44;;;;;;;43.78;19.98;;;1.30;99.90;;;;;;4959107;28;20073;-72
2021/01/08 07:55:38;;;;;;;42.50;18.30;;;1.30;99.90;;;;;;4965109;28;20064;-72
2021/01/08 07:58:04;;;;;;;39.08;19.23;;;1.30;99.90;;;;;;4966406;28;20073;-73
2021/01/08 08:00:31;;;;;;;45.00;18.77;;;1.30;99.90;;;;;;4963432;28;20105;-72
2021/01/08 08:02:59;;;;;;;51.03;20.40;;;1.30;99.90;;;;;;4963390;28;20034;-72
2021/01/08 08:05:30;;;;;;;46.70;21.45;;;1.30;99.90;;;;;;4960341;28;20771;-72
2021/01/08 08:08:07;;;;;;;46.15;19.85;;;1.30;99.90;;;;;;4972409;28;20403;-72
2021/01/08 08:10:33;;;;;;;45.30;20.92;;;1.30;99.90;;;;;;4964755;28;20117;-73
2021/01/08 08:12:59;;;;;;;40.72;18.67;;;1.20;99.90;;;;;;4966186;28;20623;-73
2021/01/08 08:15:25;;;;;;;40.47;18.48;;;1.30;99.90;;;;;;4962698;28;20096;-72
2021/01/08 08:17:50;;;;;;;39.70;18.50;;;1.30;99.90;;;;;;4957987;28;20797;-73
2021/01/08 08:20:21;;;;;;;45.75;20.85;;;1.30;99.90;;;;;;4973329;28;20039;-72
2021/01/08 08:22:47;;;;;;;48.30;22.10;;;1.40;99.90;;;;;;4958351;28;20097;-72
2021/01/08 08:25:30;;;;;;;45.72;21.10;;;1.40;99.90;;;;;;4964739;28;20039;-72
2021/01/08 08:27:58;;;;;;;45.47;21.20;;;1.50;99.90;;;;;;4957019;28;20034;-73
2021/01/08 08:30:25;;;;;;;50.03;23.50;;;1.40;99.90;;;;;;4963221;28;20034;-72
2021/01/08 08:32:52;;;;;;;42.47;20.63;;;1.50;99.90;;;;;;4970650;28;20092;-73
2021/01/08 08:35:19;;;;;;;40.45;19.65;;;1.50;99.90;;;;;;4964097;28;20034;-72
2021/01/08 08:37:55;;;;;;;42.10;21.25;;;1.50;99.90;;;;;;4967281;28;20118;-73
2021/01/08 08:40:25;;;;;;;45.55;23.77;;;1.50;99.90;;;;;;4961542;28;20119;-72
2021/01/08 08:43:01;;;;;;;41.30;20.40;;;1.60;99.90;;;;;;4959228;28;20039;-72
2021/01/08 08:45:33;;;;;;;;;;;1.50;99.90;;;;;;4962207;28;20046;-73
2021/01/08 08:48:04;;;;;;;52.75;27.08;;;1.50;99.90;;;;;;4965902;28;19914;-72
2021/01/08 08:50:31;;;;;;;68.60;39.67;;;1.50;99.90;;;;;;4961868;28;20379;-73
2021/01/08 08:52:56;;;;;;;53.00;26.02;;;1.60;99.90;;;;;;4963263;28;20034;-73
2021/01/08 08:55:32;;;;;;;42.95;21.60;;;1.50;99.90;;;;;;4961391;28;20755;-72
2021/01/08 08:58:01;;;;;;;56.25;33.90;;;1.50;99.90;;;;;;4962783;28;20090;-72
2021/01/08 09:00:27;;;;;;;44.25;22.33;;;1.60;99.90;;;;;;4965412;28;20050;-73
2021/01/08 09:02:53;;;;;;;43.40;20.38;;;1.70;99.90;;;;;;4966131;28;20042;-75
2021/01/08 09:05:19;;;;;;;63.63;29.88;;;1.80;99.90;;;;;;4965824;28;20023;-74
2021/01/08 09:08:11;;;;;;;58.60;26.75;;;1.70;99.90;;;;;;4962734;28;20105;-75
2021/01/08 09:10:56;;;;;;;61.35;28.92;;;1.70;99.90;;;;;;4971466;28;20054;-72
2021/01/08 09:13:36;;;;;;;52.45;24.30;;;1.70;99.90;;;;;;4964951;28;20026;-73
2021/01/08 09:16:13;;;;;;;47.78;22.65;;;1.80;99.90;;;;;;4967762;28;20038;-72
2021/01/08 09:19:07;;;;;;;45.05;21.05;;;1.80;99.90;;;;;;4965886;28;20078;-73
2021/01/08 09:21:49;;;;;;;43.90;21.48;;;1.80;99.90;;;;;;4966024;28;20037;-74
2021/01/08 09:24:22;;;;;;;60.95;27.67;;;1.80;99.90;;;;;;4967502;28;20046;-73
2021/01/08 09:26:49;;;;;;;50.50;23.42;;;1.80;99.90;;;;;;4965662;28;20038;-73
2021/01/08 09:29:28;;;;;;;50.85;24.58;;;1.80;99.90;;;;;;4970201;28;20038;-73
2021/01/08 09:31:56;;;;;;;41.85;20.63;;;1.90;99.90;;;;;;4975216;28;20069;-73
2021/01/08 09:34:23;;;;;;;43.20;20.92;;;2.00;99.90;;;;;;4959982;28;20039;-73
2021/01/08 09:36:50;;;;;;;40.67;19.98;;;1.90;99.90;;;;;;4970801;28;20034;-73
2021/01/08 09:39:16;;;;;;;41.20;19.38;;;2.00;99.90;;;;;;4965480;28;20027;-73
2021/01/08 09:41:53;;;;;;;46.20;20.90;;;2.10;99.90;;;;;;4971026;28;20059;-74
2021/01/08 09:44:19;;;;;;;40.35;19.60;;;2.10;99.90;;;;;;4965242;28;20031;-73
2021/01/08 09:46:53;;;;;;;41.45;19.50;;;2.10;99.90;;;;;;4963898;28;20574;-73
2021/01/08 09:49:18;;;;;;;38.15;18.60;;;2.00;99.90;;;;;;4971954;28;20776;-73
2021/01/08 09:51:44;;;;;;;40.78;19.17;;;2.10;99.90;;;;;;4984568;28;20137;-74
2021/01/08 09:54:10;;;;;;;44.42;19.55;;;2.20;99.90;;;;;;4962409;28;20173;-73
2021/01/08 09:56:36;;;;;;;48.20;20.33;;;2.20;99.90;;;;;;4959730;28;20035;-74
2021/01/08 09:59:13;;;;;;;41.03;19.05;;;2.20;99.90;;;;;;4964811;28;20085;-73
2021/01/08 10:02:04;;;;;;;45.40;20.80;;;2.10;99.90;;;;;;4969818;28;20112;-73
2021/01/08 10:04:32;;;;;;;45.22;20.55;;;2.10;99.90;;;;;;4962298;28;20043;-72
2021/01/08 10:07:04;;;;;;;42.22;19.45;;;2.10;99.90;;;;;;4970727;28;20786;-72
2021/01/08 10:09:47;;;;;;;45.38;20.25;;;2.20;99.90;;;;;;4967364;28;20053;-72
2021/01/08 10:12:13;;;;;;;40.83;20.08;;;2.20;99.90;;;;;;4978980;28;20034;-72
2021/01/08 10:14:39;;;;;;;51.83;21.60;;;2.30;99.90;;;;;;4969433;28;20034;-74
2021/01/08 10:17:09;;;;;;;46.40;21.50;;;2.30;99.90;;;;;;4963449;28;20049;-72
2021/01/08 10:19:35;;;;;;;49.67;22.85;;;2.20;99.90;;;;;;4970349;28;20039;-72
2021/01/08 10:22:02;;;;;;;43.72;21.15;;;2.30;99.90;;;;;;4964799;28;20033;-71
2021/01/08 10:24:28;;;;;;;45.95;21.05;;;2.30;99.90;;;;;;4970021;28;20046;-71
2021/01/08 10:26:53;;;;;;;47.72;21.55;;;2.20;99.90;;;;;;4968371;28;20042;-72
2021/01/08 10:29:19;;;;;;;43.15;19.60;;;2.30;99.90;;;;;;4965305;28;20035;-72
2021/01/08 10:31:45;;;;;;;41.72;17.92;;;2.40;99.90;;;;;;4960370;28;20523;-71
2021/01/08 10:34:12;;;;;;;42.83;19.33;;;2.40;99.90;;;;;;4965848;28;20046;-71
2021/01/08 10:36:38;;;;;;;42.30;18.85;;;2.40;99.90;;;;;;4962660;28;21046;-71
2021/01/08 10:39:04;;;;;;;44.40;19.30;;;2.60;99.90;;;;;;4965243;28;20177;-71
2021/01/08 10:41:30;;;;;;;47.00;20.70;;;2.50;99.90;;;;;;4967824;28;20039;-71
2021/01/08 10:43:56;;;;;;;39.55;18.65;;;2.50;99.90;;;;;;4966484;28;20475;-71
2021/01/08 10:46:21;;;;;;;38.08;18.23;;;2.60;99.90;;;;;;4967565;28;20398;-71
2021/01/08 10:48:47;;;;;;;38.70;18.02;;;2.70;99.90;;;;;;4965243;28;20068;-72
2021/01/08 10:51:13;;;;;;;46.13;19.55;;;2.70;99.90;;;;;;4964657;28;20141;-72
2021/01/08 10:53:38;;;;;;;47.45;19.75;;;2.70;99.90;;;;;;4962410;28;20035;-71
2021/01/08 10:56:04;;;;;;;40.90;18.90;;;2.70;99.90;;;;;;4961133;28;20030;-71
2021/01/08 10:58:30;;;;;;;41.42;19.13;;;2.70;99.90;;;;;;4962036;28;20074;-72
2021/01/08 11:00:57;;;;;;;44.60;20.50;;;2.80;99.90;;;;;;4961519;28;20601;-71
2021/01/08 11:03:22;;;;;;;44.30;20.30;;;2.70;99.90;;;;;;4967207;28;20463;-71
2021/01/08 11:05:49;;;;;;;54.22;29.13;;;2.60;99.90;;;;;;4967225;28;20041;-72
2021/01/08 11:08:15;;;;;;;46.05;20.52;;;2.40;99.90;;;;;;4960846;28;20039;-71
2021/01/08 11:10:41;;;;;;;47.60;21.35;;;2.50;99.90;;;;;;4969316;28;20092;-72
2021/01/08 11:13:07;;;;;;;57.95;27.95;;;2.50;99.90;;;;;;4967812;28;20114;-72
2021/01/08 11:15:33;;;;;;;45.92;20.15;;;2.50;99.90;;;;;;4974608;28;20042;-72
2021/01/08 11:17:59;;;;;;;48.83;21.88;;;2.50;99.90;;;;;;4969370;28;20031;-71
2021/01/08 11:20:25;;;;;;;103.07;67.75;;;2.40;99.90;;;;;;4966824;28;20192;-71
2021/01/08 11:22:52;;;;;;;47.53;22.50;;;2.40;99.90;;;;;;4968931;28;20037;-71
2021/01/08 11:25:18;;;;;;;46.50;19.23;;;2.30;99.90;;;;;;4963717;28;20047;-71
2021/01/08 11:27:44;;;;;;;44.63;21.33;;;2.40;99.90;;;;;;4957447;28;20159;-71
2021/01/08 11:30:12;;;;;;;88.93;44.85;;;2.50;99.90;;;;;;4968241;28;20033;-72
2021/01/08 11:32:37;;;;;;;51.88;20.08;;;2.40;99.90;;;;;;4959919;28;20562;-72
2021/01/08 11:35:04;;;;;;;41.88;20.38;;;2.40;99.90;;;;;;4960308;28;20058;-71
2021/01/08 11:37:34;;;;;;;44.17;19.83;;;2.50;99.90;;;;;;4961190;28;20038;-72
2021/01/08 11:40:00;;;;;;;46.42;21.25;;;2.60;99.90;;;;;;4969270;28;20799;-72
2021/01/08 11:42:26;;;;;;;43.65;20.08;;;2.60;99.90;;;;;;4983376;28;20038;-72
2021/01/08 11:44:52;;;;;;;42.70;20.30;;;2.60;99.90;;;;;;4963533;28;20046;-72
2021/01/08 11:47:17;;;;;;;43.08;20.45;;;2.40;99.90;;;;;;4963350;28;20035;-72
2021/01/08 11:49:44;;;;;;;55.67;26.00;;;2.30;99.90;;;;;;4965445;28;20100;-72
2021/01/08 11:52:10;;;;;;;45.15;20.00;;;2.30;99.90;;;;;;4959558;28;20109;-71
2021/01/08 11:54:35;;;;;;;44.28;20.50;;;2.30;99.90;;;;;;4969182;28;20026;-73
2021/01/08 11:57:04;;;;;;;45.70;20.77;;;2.20;99.90;;;;;;4964475;28;20475;-72
2021/01/08 11:59:30;;;;;;;40.17;18.65;;;2.30;99.90;;;;;;4965076;28;20811;-71
2021/01/08 12:02:06;;;;;;;43.88;19.77;;;2.30;99.90;;;;;;4958683;28;20038;-71
2021/01/08 12:04:32;;;;;;;;;;;2.30;99.90;;;;;;4960848;28;20038;-72
2021/01/08 12:06:59;;;;;;;43.70;19.15;;;2.30;99.90;;;;;;4962931;28;19914;-72
2021/01/08 12:09:25;;;;;;;40.00;18.27;;;2.30;99.90;;;;;;4965608;28;20153;-72
2021/01/08 12:12:01;;;;;;;45.30;19.25;;;2.30;99.90;;;;;;4962410;28;20037;-73
2021/01/08 12:14:28;;;;;;;45.88;20.50;;;2.30;99.90;;;;;;4960867;28;20034;-73
2021/01/08 12:16:54;;;;;;;39.20;18.00;;;2.30;99.90;;;;;;4961152;28;20035;-74
2021/01/08 12:19:20;;;;;;;40.55;18.10;;;2.20;99.90;;;;;;4967634;28;20042;-73
2021/01/08 12:21:50;;;;;;;41.47;18.40;;;2.30;99.90;;;;;;4972456;28;20070;-72
2021/01/08 12:24:15;;;;;;;41.55;18.98;;;2.40;99.90;;;;;;4964865;28;20716;-72
2021/01/08 12:26:41;;;;;;;44.50;18.92;;;2.40;99.90;;;;;;4963666;28;20042;-72
2021/01/08 12:29:08;;;;;;;41.95;18.58;;;2.40;99.90;;;;;;4969361;28;20041;-72
2021/01/08 12:31:35;;;;;;;44.50;20.42;;;2.30;99.90;;;;;;4963201;28;20035;-71
2021/01/08 12:34:00;;;;;;;46.10;19.73;;;2.20;99.90;;;;;;4968072;28;20502;-72
2021/01/08 12:36:26;;;;;;;41.17;18.42;;;2.30;99.90;;;;;;4967674;28;20027;-73
2021/01/08 12:38:52;;;;;;;46.97;19.35;;;2.30;99.90;;;;;;4977222;28;20026;-73
2021/01/08 12:41:18;;;;;;;38.70;17.25;;;2.30;99.90;;;;;;4973759;28;20035;-74
2021/01/08 12:43:45;;;;;;;42.00;18.00;;;2.20;99.90;;;;;;4969098;28;20455;-74
2021/01/08 12:46:12;;;;;;;50.35;22.40;;;2.20;99.90;;;;;;4968464;28;20066;-73